Aviation

Port-au-Prince

FTHA31 MTPP 011800
TAF MTPP 011715Z 0118/0218 26010KT 9000 FEW028 PROB30 TEMPO 0123/0205 4500 -TSRA SCT024CB BKN050 FM020600 VRB02KT 8000 FEW020 SCT030 BECMG 0216/0218 30010KT=


Cap-Haïtien

FTHA31 MTCH 011800
TAF MTCH 011725Z 0118/0218 01015KT 9999 FEW030TCU PROB30 TEMPO 0200/0206 4800 -TSRA SCT026CB FM020800 20006KT 8000 FEW020 BECMG 0216/0218 02012KT=